Sutter, Illinois
Current Conditions -  °F | °C
As of 4:35 PM on Monday 24 Nov 2014 (Local Time) from KEOK Reporting Station
Overcast Overcast  
Wind Chill: 19°   Ceiling: 2800
Heat Index: 30°   Visibility: 10mi
Dew Point: 25°   Wind: 15mph
Humidity: 80%   Direction: 270°W
Pressure: 29.78"   Gusts: NA
Location:  40.28°N, 91.34°W
Report Text: KEOK 242235Z AUTO 27013KT 10SM OVC028 M01/M04 A2978 RMK AO2
Loading
Personal Weather Stations






























Interactive Weather Map New forecast layout! Learn more

10-Day Weather Forecast

Advertisements
Track Severe Weather on mobile